Time;durP1;ratioP1;P1;durP2;ratioP2;P2;SDS_P1;SDS_P2;PMS_P1;PMS_P2;Temp;Humidity;BMP_temperature;BMP_pressure;BME280_temperature;BME280_humidity;BME280_pressure;Samples;Min_cycle;Max_cycle;Signal;HPM_P1;HPM_P2
2022/09/18 00:00:50;;;;;;;1.00;1.00;;;12.10;99.90;;;;;;5078074;28;20200;-73
2022/09/18 00:03:17;;;;;;;1.17;1.10;;;12.00;99.90;;;;;;5053933;28;20196;-73
2022/09/18 00:05:44;;;;;;;1.27;1.10;;;11.90;99.90;;;;;;5046967;28;20223;-74
2022/09/18 00:08:11;;;;;;;1.03;0.97;;;12.00;99.90;;;;;;5047246;28;20200;-73
2022/09/18 00:10:41;;;;;;;1.43;1.17;;;11.90;99.90;;;;;;5047221;28;20209;-73
2022/09/18 00:13:08;;;;;;;3.40;1.10;;;11.80;99.90;;;;;;5058641;28;20204;-73
2022/09/18 00:15:36;;;;;;;2.63;1.20;;;11.80;99.90;;;;;;5061002;28;20255;-73
2022/09/18 00:18:04;;;;;;;0.70;0.70;;;11.80;99.90;;;;;;5056037;28;20215;-73
2022/09/18 00:20:33;;;;;;;1.10;1.00;;;11.80;99.90;;;;;;5066679;28;20666;-73
2022/09/18 00:23:00;;;;;;;1.07;0.90;;;11.80;99.90;;;;;;5056789;28;20208;-73
2022/09/18 00:25:27;;;;;;;0.60;0.60;;;11.70;99.90;;;;;;5055526;28;20216;-74
2022/09/18 00:27:54;;;;;;;0.60;0.60;;;11.70;99.90;;;;;;5053123;28;20228;-75
2022/09/18 00:30:21;;;;;;;0.90;0.90;;;11.70;99.90;;;;;;5053930;28;20702;-75
2022/09/18 00:32:47;;;;;;;0.90;0.90;;;11.70;99.90;;;;;;5054162;28;20727;-74
2022/09/18 00:35:15;;;;;;;0.73;0.60;;;11.70;99.90;;;;;;5055501;28;20231;-73
2022/09/18 00:37:42;;;;;;;0.70;0.70;;;11.80;99.90;;;;;;5062210;28;20235;-73
2022/09/18 00:40:10;;;;;;;1.70;0.60;;;11.80;99.90;;;;;;5062056;28;20207;-74
2022/09/18 00:42:37;;;;;;;0.60;0.60;;;11.70;99.90;;;;;;5067196;28;20208;-74
2022/09/18 00:45:04;;;;;;;1.53;0.70;;;11.80;99.90;;;;;;5068967;28;20208;-74
2022/09/18 00:47:33;;;;;;;1.87;0.70;;;11.80;99.90;;;;;;5062849;28;20208;-74
2022/09/18 00:50:07;;;;;;;1.63;0.70;;;11.70;99.90;;;;;;5053707;28;20236;-74
2022/09/18 00:52:45;;;;;;;0.73;0.73;;;11.80;99.90;;;;;;5051415;28;20196;-74
2022/09/18 00:55:13;;;;;;;1.07;0.60;;;11.80;99.90;;;;;;5053338;28;20200;-74
2022/09/18 00:57:46;;;;;;;0.90;0.53;;;11.70;99.90;;;;;;5059087;28;20206;-74
2022/09/18 01:00:13;;;;;;;0.57;0.50;;;11.70;99.90;;;;;;5057378;28;20261;-73
2022/09/18 01:02:42;;;;;;;1.80;0.93;;;11.70;99.90;;;;;;5064687;28;20226;-74
2022/09/18 01:05:09;;;;;;;1.10;0.50;;;11.70;99.90;;;;;;5051600;28;20203;-73
2022/09/18 01:07:57;;;;;;;2.20;0.60;;;11.70;99.90;;;;;;5058837;28;20208;-74
2022/09/18 01:10:37;;;;;;;0.43;0.40;;;11.70;99.90;;;;;;5049579;28;20211;-74
2022/09/18 01:13:14;;;;;;;0.37;0.37;;;11.70;99.90;;;;;;5073075;28;20267;-74
2022/09/18 01:15:51;;;;;;;1.13;0.50;;;11.80;99.90;;;;;;5051281;28;20223;-74
2022/09/18 01:18:25;;;;;;;1.00;0.50;;;11.80;99.90;;;;;;5062123;28;20202;-73
2022/09/18 01:21:06;;;;;;;0.87;0.50;;;11.80;99.90;;;;;;5069824;28;20199;-74
2022/09/18 01:24:09;;;;;;;0.40;0.30;;;11.90;99.90;;;;;;5051539;28;20215;-73
2022/09/18 01:26:55;;;;;;;0.30;0.30;;;11.90;99.90;;;;;;5055585;28;20212;-73
2022/09/18 01:29:34;;;;;;;1.87;0.50;;;11.90;99.90;;;;;;5049558;28;20220;-73
2022/09/18 01:32:06;;;;;;;0.30;0.30;;;11.90;99.90;;;;;;5050452;28;20287;-73
2022/09/18 01:34:36;;;;;;;1.70;0.43;;;11.90;99.90;;;;;;5049734;28;20243;-74
2022/09/18 01:37:08;;;;;;;0.47;0.37;;;11.90;99.90;;;;;;5051242;28;20980;-74
2022/09/18 01:39:39;;;;;;;0.47;0.40;;;11.90;99.90;;;;;;5048137;28;20207;-74
2022/09/18 01:42:08;;;;;;;0.93;0.40;;;11.80;99.90;;;;;;5050460;28;20950;-73
2022/09/18 01:44:38;;;;;;;0.50;0.40;;;11.90;99.90;;;;;;5055762;28;20582;-74
2022/09/18 01:47:11;;;;;;;0.47;0.47;;;11.90;99.90;;;;;;5054512;28;20204;-73
2022/09/18 01:49:42;;;;;;;0.50;0.50;;;11.90;99.90;;;;;;5052612;28;20196;-73
2022/09/18 01:52:12;;;;;;;0.77;0.30;;;11.80;99.90;;;;;;5060961;28;20212;-74
2022/09/18 01:54:43;;;;;;;2.23;0.20;;;11.80;99.90;;;;;;5058540;28;20214;-73
2022/09/18 01:57:13;;;;;;;0.53;0.30;;;11.80;99.90;;;;;;5057373;28;20698;-74
2022/09/18 01:59:45;;;;;;;1.30;0.20;;;11.80;99.90;;;;;;5059203;28;20207;-74
2022/09/18 02:02:17;;;;;;;0.43;0.23;;;11.70;99.90;;;;;;5063937;28;20295;-74
2022/09/18 02:04:47;;;;;;;0.90;0.40;;;11.80;99.90;;;;;;5049107;28;20189;-74
2022/09/18 02:07:18;;;;;;;1.00;0.40;;;11.80;99.90;;;;;;5051856;28;20215;-74
2022/09/18 02:09:45;;;;;;;0.50;0.50;;;11.60;99.90;;;;;;5049314;28;20207;-74
2022/09/18 02:12:17;;;;;;;0.90;0.57;;;11.70;99.90;;;;;;5054215;28;20203;-74
2022/09/18 02:14:47;;;;;;;1.47;0.70;;;11.60;99.90;;;;;;5063374;28;20203;-74
2022/09/18 02:17:19;;;;;;;1.50;0.60;;;11.60;99.90;;;;;;5053313;28;20227;-74
2022/09/18 02:19:51;;;;;;;0.93;0.60;;;11.60;99.90;;;;;;5051590;28;20192;-74
2022/09/18 02:22:23;;;;;;;0.43;0.43;;;11.50;99.90;;;;;;5068621;28;20643;-74
2022/09/18 02:24:53;;;;;;;2.40;1.00;;;11.50;99.90;;;;;;5058048;28;20475;-74
2022/09/18 02:27:23;;;;;;;1.97;1.20;;;11.60;99.90;;;;;;5048420;28;20208;-74
2022/09/18 02:29:52;;;;;;;4.73;1.30;;;11.50;99.90;;;;;;5048774;28;20199;-74
2022/09/18 02:32:19;;;;;;;3.40;0.93;;;11.50;99.90;;;;;;5058341;28;20196;-71
2022/09/18 02:34:46;;;;;;;2.87;1.40;;;11.40;99.90;;;;;;5065251;28;20212;-72
2022/09/18 02:37:29;;;;;;;4.67;1.60;;;11.30;99.90;;;;;;5062236;28;20258;-71
2022/09/18 02:40:09;;;;;;;4.50;1.50;;;11.30;99.90;;;;;;5052199;28;20208;-71
2022/09/18 02:42:43;;;;;;;3.20;1.80;;;11.20;99.90;;;;;;5049405;28;20274;-71
2022/09/18 02:45:22;;;;;;;6.07;1.50;;;11.20;99.90;;;;;;5061074;28;20218;-74
2022/09/18 02:48:04;;;;;;;6.00;1.80;;;11.20;99.90;;;;;;5063453;28;20212;-74
2022/09/18 02:50:37;;;;;;;3.67;1.70;;;11.10;99.90;;;;;;5056665;28;20204;-74
2022/09/18 02:53:10;;;;;;;5.50;1.70;;;11.10;99.90;;;;;;5051612;28;20204;-74
2022/09/18 02:55:44;;;;;;;5.93;1.53;;;11.10;99.90;;;;;;5066504;28;20208;-74
2022/09/18 02:58:17;;;;;;;10.33;2.10;;;11.10;99.90;;;;;;5058455;28;20208;-75
2022/09/18 03:00:47;;;;;;;8.23;1.97;;;11.10;99.90;;;;;;5064303;28;20202;-74
2022/09/18 03:03:16;;;;;;;9.23;1.83;;;11.10;99.90;;;;;;5053441;28;20873;-74
2022/09/18 03:05:43;;;;;;;7.97;2.00;;;11.10;99.90;;;;;;5051700;28;20243;-75
2022/09/18 03:08:10;;;;;;;10.60;1.90;;;11.10;99.90;;;;;;5048756;28;20212;-74
2022/09/18 03:10:37;;;;;;;9.23;2.20;;;11.10;99.90;;;;;;5055633;28;20200;-74
2022/09/18 03:13:03;;;;;;;11.70;2.63;;;11.10;99.90;;;;;;5054301;28;20594;-74
2022/09/18 03:15:30;;;;;;;7.53;2.43;;;11.20;99.90;;;;;;5065291;28;20203;-74
2022/09/18 03:17:59;;;;;;;7.00;2.13;;;11.10;99.90;;;;;;5054910;28;20807;-74
2022/09/18 03:20:25;;;;;;;7.53;2.20;;;11.20;99.90;;;;;;5055182;28;21213;-75
2022/09/18 03:22:52;;;;;;;12.83;2.20;;;11.20;99.90;;;;;;5046734;28;20223;-74
2022/09/18 03:25:19;;;;;;;8.93;2.57;;;11.10;99.90;;;;;;5054251;28;20210;-74
2022/09/18 03:27:46;;;;;;;11.40;2.70;;;11.10;99.90;;;;;;5067305;28;20211;-75
2022/09/18 03:30:13;;;;;;;10.13;2.87;;;11.00;99.90;;;;;;5067337;28;20214;-74
2022/09/18 03:32:40;;;;;;;8.13;2.37;;;10.90;99.90;;;;;;5067319;28;20576;-72
2022/09/18 03:35:09;;;;;;;7.57;2.63;;;10.90;99.90;;;;;;5066582;28;20214;-72
2022/09/18 03:37:35;;;;;;;10.83;2.80;;;10.90;99.90;;;;;;5056680;28;20254;-73
2022/09/18 03:40:03;;;;;;;6.47;2.40;;;10.90;99.90;;;;;;5051178;28;20208;-73
2022/09/18 03:42:29;;;;;;;8.47;2.73;;;10.90;99.90;;;;;;5059657;28;20852;-73
2022/09/18 03:44:56;;;;;;;6.87;2.57;;;10.90;99.90;;;;;;5056162;28;20200;-73
2022/09/18 03:47:23;;;;;;;11.57;3.03;;;10.90;99.90;;;;;;5066679;28;20207;-73
2022/09/18 03:49:50;;;;;;;7.93;2.53;;;10.90;99.90;;;;;;5067505;28;20251;-73
2022/09/18 03:52:18;;;;;;;7.90;2.50;;;10.90;99.90;;;;;;5053345;28;20205;-73
2022/09/18 03:54:45;;;;;;;7.10;2.40;;;10.80;99.90;;;;;;5050197;28;20653;-72
2022/09/18 03:57:12;;;;;;;7.40;2.60;;;10.80;99.90;;;;;;5052213;28;20219;-73
2022/09/18 03:59:39;;;;;;;6.80;2.73;;;10.80;99.90;;;;;;5061858;28;20207;-72
2022/09/18 04:02:05;;;;;;;7.63;2.47;;;10.80;99.90;;;;;;5064251;28;20211;-72
2022/09/18 04:04:32;;;;;;;8.57;2.60;;;10.70;99.90;;;;;;5045788;28;20582;-72
2022/09/18 04:06:59;;;;;;;10.00;2.73;;;10.70;99.90;;;;;;5054343;28;20601;-72
2022/09/18 04:09:27;;;;;;;6.50;3.00;;;10.80;99.90;;;;;;5053867;28;20586;-74
2022/09/18 04:11:54;;;;;;;12.57;3.13;;;10.80;99.90;;;;;;5047293;28;20686;-74
2022/09/18 04:14:21;;;;;;;6.40;3.03;;;10.80;99.90;;;;;;5054582;28;20244;-74
2022/09/18 04:16:48;;;;;;;6.70;2.70;;;10.80;99.90;;;;;;5065670;28;20250;-74
2022/09/18 04:19:15;;;;;;;7.90;2.73;;;10.70;99.90;;;;;;5066950;28;20206;-73
2022/09/18 04:21:42;;;;;;;6.37;2.30;;;10.70;99.90;;;;;;5066577;28;20235;-74
2022/09/18 04:24:08;;;;;;;9.93;2.60;;;10.70;99.90;;;;;;5065643;28;20215;-75
2022/09/18 04:26:37;;;;;;;5.80;2.00;;;10.70;99.90;;;;;;5057972;28;20208;-74
2022/09/18 04:29:04;;;;;;;5.93;1.80;;;10.70;99.90;;;;;;5049481;28;20226;-74
2022/09/18 04:31:30;;;;;;;8.43;2.30;;;10.70;99.90;;;;;;5063719;28;20214;-74
2022/09/18 04:33:57;;;;;;;3.50;1.77;;;10.60;99.90;;;;;;5049843;28;20212;-74
2022/09/18 04:36:24;;;;;;;4.27;2.30;;;10.60;99.90;;;;;;5055469;28;20725;-74
2022/09/18 04:38:51;;;;;;;9.57;2.30;;;10.60;99.90;;;;;;5067003;28;20207;-74
2022/09/18 04:41:18;;;;;;;5.83;2.00;;;10.60;99.90;;;;;;5066910;28;20211;-74
2022/09/18 04:43:46;;;;;;;7.50;2.00;;;10.60;99.90;;;;;;5066526;28;20231;-74
2022/09/18 04:46:12;;;;;;;8.90;2.00;;;10.60;99.90;;;;;;5066494;28;20211;-74
2022/09/18 04:48:39;;;;;;;6.43;1.87;;;10.50;99.90;;;;;;5066077;28;20207;-73
2022/09/18 04:51:06;;;;;;;5.07;1.80;;;10.50;99.90;;;;;;5048187;28;20212;-73
2022/09/18 04:53:36;;;;;;;6.77;1.70;;;10.50;99.90;;;;;;5051832;28;20199;-74
2022/09/18 04:56:05;;;;;;;9.13;2.00;;;10.50;99.90;;;;;;5066596;28;20211;-74
2022/09/18 04:58:32;;;;;;;8.10;2.00;;;10.40;99.90;;;;;;5046771;28;20574;-74
2022/09/18 05:01:00;;;;;;;10.03;1.80;;;10.40;99.90;;;;;;5046627;28;20196;-74
2022/09/18 05:03:27;;;;;;;7.17;2.23;;;10.40;99.90;;;;;;5046158;28;20205;-74
2022/09/18 05:05:55;;;;;;;6.17;1.70;;;10.40;99.90;;;;;;5046525;28;20593;-74
2022/09/18 05:08:22;;;;;;;4.87;2.50;;;10.50;99.90;;;;;;5065957;28;20218;-74
2022/09/18 05:10:48;;;;;;;7.57;1.83;;;10.40;99.90;;;;;;5066496;28;20214;-75
2022/09/18 05:13:15;;;;;;;5.00;1.80;;;10.40;99.90;;;;;;5052770;28;20216;-75
2022/09/18 05:15:42;;;;;;;4.57;1.90;;;10.40;99.90;;;;;;5064736;28;20662;-74
2022/09/18 05:18:11;;;;;;;7.67;1.60;;;10.30;99.90;;;;;;5051039;28;20236;-74
2022/09/18 05:20:38;;;;;;;7.10;1.80;;;10.30;99.90;;;;;;5055407;28;20206;-74
2022/09/18 05:23:05;;;;;;;5.17;1.90;;;10.40;99.90;;;;;;5076050;28;20204;-73
2022/09/18 05:25:32;;;;;;;5.83;1.93;;;10.40;99.90;;;;;;5069646;28;20208;-74
2022/09/18 05:28:00;;;;;;;4.23;2.00;;;10.40;99.90;;;;;;5069678;28;20227;-74
2022/09/18 05:30:28;;;;;;;9.10;2.00;;;10.40;99.90;;;;;;5069667;28;20574;-73
2022/09/18 05:32:59;;;;;;;5.33;1.97;;;10.30;99.90;;;;;;5068740;28;20207;-74
2022/09/18 05:35:29;;;;;;;7.43;2.03;;;10.30;99.90;;;;;;5049400;28;20678;-74
2022/09/18 05:37:56;;;;;;;5.70;1.73;;;10.30;99.90;;;;;;5060691;28;20258;-74
2022/09/18 05:40:24;;;;;;;5.03;1.87;;;10.30;99.90;;;;;;5063978;28;20218;-73
2022/09/18 05:42:52;;;;;;;10.63;1.87;;;10.20;99.90;;;;;;5049432;28;20448;-73
2022/09/18 05:45:20;;;;;;;5.50;2.00;;;10.20;99.90;;;;;;5054145;28;20192;-73
2022/09/18 05:47:55;;;;;;;5.80;1.73;;;10.10;99.90;;;;;;5069402;28;20583;-73
2022/09/18 05:50:22;;;;;;;6.07;2.10;;;10.10;99.90;;;;;;5063476;28;20270;-73
2022/09/18 05:52:58;;;;;;;4.70;1.80;;;10.10;99.90;;;;;;5048814;28;20208;-75
2022/09/18 05:55:27;;;;;;;6.40;2.13;;;10.00;99.90;;;;;;5064868;28;20208;-73
2022/09/18 05:57:55;;;;;;;9.23;2.23;;;10.00;99.90;;;;;;5068642;28;20270;-73
2022/09/18 06:00:22;;;;;;;7.37;1.80;;;10.00;99.90;;;;;;5069108;28;20298;-73
2022/09/18 06:02:53;;;;;;;5.20;1.77;;;10.00;99.90;;;;;;5058497;28;20258;-73
2022/09/18 06:05:20;;;;;;;6.83;2.00;;;9.90;99.90;;;;;;5048731;28;20208;-73
2022/09/18 06:07:47;;;;;;;6.63;2.10;;;10.00;99.90;;;;;;5048794;28;20213;-73
2022/09/18 06:10:15;;;;;;;8.50;2.00;;;10.00;99.90;;;;;;5051943;28;20227;-73
2022/09/18 06:12:42;;;;;;;8.00;1.80;;;10.00;99.90;;;;;;5048922;28;20204;-73
2022/09/18 06:15:09;;;;;;;4.87;1.63;;;10.10;99.90;;;;;;5052787;28;20218;-73
2022/09/18 06:17:36;;;;;;;7.27;2.00;;;10.20;99.90;;;;;;5048595;28;20224;-73
2022/09/18 06:20:04;;;;;;;6.97;1.70;;;10.10;99.90;;;;;;5065932;28;20222;-73
2022/09/18 06:22:31;;;;;;;7.47;1.80;;;10.20;99.90;;;;;;5067092;28;20573;-73
2022/09/18 06:24:58;;;;;;;6.93;2.40;;;10.20;99.90;;;;;;5067981;28;20233;-71
2022/09/18 06:27:26;;;;;;;8.77;2.13;;;10.20;99.90;;;;;;5052843;28;20231;-72
2022/09/18 06:29:53;;;;;;;8.70;2.30;;;10.20;99.90;;;;;;5060828;28;20200;-73
2022/09/18 06:32:20;;;;;;;7.57;2.03;;;10.20;99.90;;;;;;5052728;28;20204;-73
2022/09/18 06:34:47;;;;;;;8.67;2.10;;;10.20;99.90;;;;;;5054152;28;20229;-72
2022/09/18 06:37:14;;;;;;;9.67;1.97;;;10.20;99.90;;;;;;5064769;28;20239;-74
2022/09/18 06:39:42;;;;;;;8.80;2.23;;;10.20;99.90;;;;;;5055513;28;20203;-75
2022/09/18 06:42:09;;;;;;;6.20;1.77;;;10.20;99.90;;;;;;5060676;28;20203;-76
2022/09/18 06:44:38;;;;;;;8.23;1.83;;;10.20;99.90;;;;;;5049978;28;20207;-75
2022/09/18 06:47:04;;;;;;;7.47;1.70;;;10.10;99.90;;;;;;5051495;28;20207;-74
2022/09/18 06:49:31;;;;;;;6.07;1.60;;;10.20;99.90;;;;;;5060829;28;20219;-75
2022/09/18 06:51:58;;;;;;;5.97;1.70;;;10.30;99.90;;;;;;5048230;28;20208;-75
2022/09/18 06:54:25;;;;;;;5.67;2.07;;;10.30;99.90;;;;;;5063138;28;20207;-74
2022/09/18 06:56:52;;;;;;;6.33;1.60;;;10.40;99.90;;;;;;5068323;28;20207;-73
2022/09/18 06:59:18;;;;;;;4.23;2.00;;;10.50;99.90;;;;;;5067470;28;20718;-69
2022/09/18 07:01:48;;;;;;;5.93;1.80;;;10.50;99.90;;;;;;5066859;28;20191;-69
2022/09/18 07:04:15;;;;;;;7.40;2.03;;;10.50;99.90;;;;;;5047572;28;20215;-69
2022/09/18 07:06:44;;;;;;;8.70;1.70;;;10.60;99.90;;;;;;5046620;28;20207;-69
2022/09/18 07:09:11;;;;;;;7.83;2.47;;;10.60;99.90;;;;;;5047536;28;20266;-68
2022/09/18 07:11:38;;;;;;;7.43;2.00;;;10.70;99.90;;;;;;5047140;28;20703;-69
2022/09/18 07:14:06;;;;;;;6.50;2.03;;;10.70;99.90;;;;;;5046825;28;21010;-69
2022/09/18 07:16:32;;;;;;;7.07;1.87;;;10.80;99.90;;;;;;5055270;28;20231;-69
2022/09/18 07:19:01;;;;;;;4.00;1.70;;;10.80;99.90;;;;;;5050268;28;20690;-69
2022/09/18 07:21:28;;;;;;;6.37;1.53;;;10.80;99.90;;;;;;5055395;28;20677;-69
2022/09/18 07:23:55;;;;;;;7.60;1.67;;;10.90;99.90;;;;;;5045612;28;20230;-70
2022/09/18 07:26:21;;;;;;;4.77;1.50;;;10.90;99.90;;;;;;5058616;28;20236;-70
2022/09/18 07:28:50;;;;;;;5.13;1.83;;;11.10;99.90;;;;;;5051406;28;20705;-70
2022/09/18 07:31:17;;;;;;;7.47;1.83;;;11.20;99.90;;;;;;5052622;28;20210;-69
2022/09/18 07:33:44;;;;;;;7.93;1.70;;;11.20;99.90;;;;;;5049634;28;20208;-69
2022/09/18 07:36:12;;;;;;;2.20;1.20;;;11.20;99.90;;;;;;5066211;28;20713;-68
2022/09/18 07:38:41;;;;;;;6.40;1.37;;;11.20;99.90;;;;;;5055997;28;20219;-68
2022/09/18 07:41:08;;;;;;;7.93;1.90;;;11.20;99.90;;;;;;5057989;28;20290;-68
2022/09/18 07:43:35;;;;;;;4.83;1.70;;;11.30;99.90;;;;;;5056795;28;20203;-69
2022/09/18 07:46:02;;;;;;;4.80;1.30;;;11.20;99.90;;;;;;5054190;28;20208;-70
2022/09/18 07:48:29;;;;;;;6.27;1.60;;;11.30;99.90;;;;;;5054456;28;20280;-69
2022/09/18 07:50:57;;;;;;;5.10;1.20;;;11.30;99.90;;;;;;5052799;28;20208;-69
2022/09/18 07:53:25;;;;;;;5.53;2.10;;;11.30;99.90;;;;;;5065854;28;20248;-70
2022/09/18 07:55:54;;;;;;;8.57;1.83;;;11.40;99.90;;;;;;5060609;28;20262;-70
2022/09/18 07:58:22;;;;;;;8.27;1.97;;;11.40;99.90;;;;;;5045337;28;20240;-70
2022/09/18 08:00:49;;;;;;;7.93;2.37;;;11.50;99.90;;;;;;5046014;28;20207;-70
2022/09/18 08:03:17;;;;;;;4.73;1.90;;;11.70;99.90;;;;;;5046884;28;20208;-70
2022/09/18 08:05:44;;;;;;;11.67;1.90;;;11.60;99.90;;;;;;5048029;28;20209;-70
2022/09/18 08:08:12;;;;;;;7.30;1.90;;;11.60;99.90;;;;;;5044501;28;20893;-69
2022/09/18 08:10:42;;;;;;;7.23;2.13;;;11.50;99.90;;;;;;5045584;28;20204;-69
2022/09/18 08:13:09;;;;;;;9.53;2.90;;;11.60;99.90;;;;;;5063554;28;20215;-69
2022/09/18 08:15:38;;;;;;;6.67;2.47;;;11.60;99.90;;;;;;5058682;28;21010;-69
2022/09/18 08:18:06;;;;;;;4.83;1.80;;;11.60;99.90;;;;;;5044352;28;20236;-69
2022/09/18 08:20:32;;;;;;;5.20;1.27;;;11.70;99.90;;;;;;5045136;28;20208;-69
2022/09/18 08:23:01;;;;;;;7.23;1.60;;;11.70;99.90;;;;;;5061788;28;20576;-69
2022/09/18 08:25:28;;;;;;;12.80;2.53;;;11.80;99.90;;;;;;5049126;28;20215;-69
2022/09/18 08:28:00;;;;;;;3.50;1.47;;;11.90;99.90;;;;;;5045191;28;20231;-69
2022/09/18 08:30:28;;;;;;;6.13;1.77;;;12.10;99.90;;;;;;5044582;28;20192;-69
2022/09/18 08:32:58;;;;;;;7.23;2.03;;;12.10;99.90;;;;;;5058892;28;20203;-69
2022/09/18 08:35:26;;;;;;;7.10;1.80;;;12.10;99.90;;;;;;5064280;28;20203;-69
2022/09/18 08:37:53;;;;;;;7.60;2.20;;;12.10;99.90;;;;;;5064497;28;20239;-69
2022/09/18 08:40:26;;;;;;;5.67;1.83;;;12.20;99.90;;;;;;5064998;28;20222;-69
2022/09/18 08:43:06;;;;;;;7.10;2.30;;;12.30;99.90;;;;;;5050781;28;20247;-69
2022/09/18 08:45:42;;;;;;;7.50;1.50;;;12.20;99.90;;;;;;5044504;28;20668;-69
2022/09/18 08:48:15;;;;;;;4.97;1.20;;;12.30;99.90;;;;;;5045546;28;20200;-69
2022/09/18 08:50:46;;;;;;;9.07;2.03;;;12.40;99.90;;;;;;5048273;28;20200;-69
2022/09/18 08:53:16;;;;;;;5.17;1.63;;;12.50;99.90;;;;;;5048373;28;20647;-69
2022/09/18 08:55:46;;;;;;;3.30;1.93;;;12.70;99.90;;;;;;5066266;28;20214;-69
2022/09/18 08:58:16;;;;;;;5.00;1.43;;;12.70;99.90;;;;;;5068395;28;20227;-69
2022/09/18 09:00:48;;;;;;;4.83;1.77;;;12.70;99.90;;;;;;5067532;28;20286;-69
2022/09/18 09:03:26;;;;;;;5.13;1.37;;;12.60;99.90;;;;;;5068178;28;20192;-69
2022/09/18 09:05:58;;;;;;;4.20;1.50;;;12.70;99.90;;;;;;5068377;28;20614;-69
2022/09/18 09:09:01;;;;;;;3.03;1.57;;;12.80;99.90;;;;;;5068773;28;20207;-69
2022/09/18 09:11:40;;;;;;;2.13;1.43;;;13.00;99.90;;;;;;5068036;28;20199;-69
2022/09/18 09:14:35;;;;;;;3.93;1.07;;;13.00;99.90;;;;;;5068459;28;20206;-69
2022/09/18 09:17:07;;;;;;;2.63;0.93;;;13.00;99.90;;;;;;5067878;28;20230;-69
2022/09/18 09:19:39;;;;;;;6.23;2.63;;;12.90;99.90;;;;;;5067734;28;20226;-69
2022/09/18 09:22:13;;;;;;;7.43;4.50;;;13.00;99.90;;;;;;5068362;28;20199;-70
2022/09/18 09:24:48;;;;;;;5.50;1.50;;;13.10;99.90;;;;;;5067603;28;20261;-68
2022/09/18 09:27:19;;;;;;;5.80;1.50;;;13.10;99.90;;;;;;5068113;28;20245;-68
2022/09/18 09:29:49;;;;;;;4.57;1.70;;;13.10;99.90;;;;;;5067672;28;20195;-68
2022/09/18 09:32:22;;;;;;;5.23;1.30;;;13.10;99.90;;;;;;5067255;28;20682;-68
2022/09/18 09:34:55;;;;;;;2.77;1.00;;;13.10;99.90;;;;;;5068032;28;20215;-68
2022/09/18 09:37:28;;;;;;;4.17;1.47;;;13.00;99.90;;;;;;5068455;28;20592;-70
2022/09/18 09:39:59;;;;;;;3.87;1.47;;;13.10;99.90;;;;;;5052785;28;20209;-69
2022/09/18 09:42:30;;;;;;;4.43;1.37;;;13.10;99.90;;;;;;5050778;28;20203;-69
2022/09/18 09:45:03;;;;;;;5.13;1.47;;;13.10;99.90;;;;;;5050297;28;20196;-71
2022/09/18 09:47:42;;;;;;;4.80;1.23;;;13.00;99.90;;;;;;5048706;28;20192;-71
2022/09/18 09:50:34;;;;;;;3.57;1.43;;;13.00;99.90;;;;;;5050174;28;20204;-69
2022/09/18 09:53:03;;;;;;;3.13;1.03;;;13.00;99.90;;;;;;5049697;28;20266;-69
2022/09/18 09:55:34;;;;;;;5.07;1.33;;;12.90;99.90;;;;;;5064759;28;20658;-69
2022/09/18 09:58:12;;;;;;;4.73;1.13;;;12.80;99.90;;;;;;5049877;28;20193;-69
2022/09/18 10:00:48;;;;;;;6.70;1.30;;;12.80;99.90;;;;;;5057347;28;20198;-71
2022/09/18 10:03:27;;;;;;;3.40;1.37;;;12.90;99.90;;;;;;5069447;28;20567;-71
2022/09/18 10:06:04;;;;;;;1.70;1.00;;;13.00;99.90;;;;;;5069866;28;20199;-71
2022/09/18 10:08:35;;;;;;;5.17;1.57;;;13.20;99.90;;;;;;5069437;28;20199;-70
2022/09/18 10:11:11;;;;;;;3.63;2.47;;;13.40;99.90;;;;;;5058762;28;20211;-70
2022/09/18 10:13:43;;;;;;;5.97;2.70;;;13.60;99.90;;;;;;5084171;28;20195;-70
2022/09/18 10:16:15;;;;;;;3.73;1.70;;;13.80;99.90;;;;;;5089673;28;20194;-70
2022/09/18 10:18:45;;;;;;;4.30;1.50;;;13.80;99.90;;;;;;5089462;28;20230;-72
2022/09/18 10:21:15;;;;;;;2.77;1.20;;;13.90;99.90;;;;;;5089497;28;20256;-73
2022/09/18 10:23:44;;;;;;;4.07;1.23;;;13.80;99.90;;;;;;5074696;28;20657;-69
2022/09/18 10:26:17;;;;;;;4.53;1.13;;;13.60;99.90;;;;;;5068956;28;20215;-72
2022/09/18 10:28:44;;;;;;;6.00;1.60;;;13.60;99.90;;;;;;5068914;28;20227;-70
2022/09/18 10:31:14;;;;;;;5.90;1.17;;;13.60;99.90;;;;;;5062970;28;20216;-70
2022/09/18 10:33:43;;;;;;;5.30;1.13;;;13.70;99.90;;;;;;5049008;28;20205;-70
2022/09/18 10:36:18;;;;;;;4.73;1.37;;;13.80;99.90;;;;;;5063493;28;20206;-70
2022/09/18 10:38:45;;;;;;;4.13;1.70;;;13.90;99.90;;;;;;5049275;28;20238;-70
2022/09/18 10:41:19;;;;;;;3.87;1.07;;;13.80;99.90;;;;;;5046729;28;20211;-70
2022/09/18 10:44:18;;;;;;;2.63;1.13;;;13.70;99.90;;;;;;5046718;28;20582;-70
2022/09/18 10:46:57;;;;;;;5.20;1.10;;;13.30;99.90;;;;;;5047647;28;20223;-70
2022/09/18 10:49:27;;;;;;;3.70;1.40;;;13.10;99.90;;;;;;5063982;28;20646;-70
2022/09/18 10:52:30;;;;;;;2.60;1.20;;;13.10;99.90;;;;;;5065939;28;20670;-70
2022/09/18 10:55:08;;;;;;;5.10;1.87;;;13.30;99.90;;;;;;5054804;28;20295;-70
2022/09/18 10:57:36;;;;;;;4.73;1.80;;;13.50;99.90;;;;;;5046147;28;20930;-70
2022/09/18 11:00:29;;;;;;;3.93;1.17;;;13.60;99.90;;;;;;5055104;28;20931;-70
2022/09/18 11:03:01;;;;;;;3.13;1.30;;;13.70;99.90;;;;;;5046005;28;20192;-70
2022/09/18 11:05:31;;;;;;;3.00;1.27;;;13.80;99.90;;;;;;5058824;28;20290;-69
2022/09/18 11:08:00;;;;;;;3.47;1.20;;;13.70;99.90;;;;;;5066045;28;20611;-70
2022/09/18 11:10:31;;;;;;;6.40;1.47;;;13.10;99.90;;;;;;5065783;28;20214;-70
2022/09/18 11:13:01;;;;;;;4.00;1.03;;;12.40;99.90;;;;;;5049116;28;20662;-70
2022/09/18 11:15:29;;;;;;;5.27;1.50;;;12.10;99.90;;;;;;5046796;28;20231;-70
2022/09/18 11:18:01;;;;;;;3.47;1.27;;;11.80;99.90;;;;;;5045902;28;20208;-70
2022/09/18 11:20:30;;;;;;;5.80;1.70;;;11.80;99.90;;;;;;5046207;28;20228;-69
2022/09/18 11:23:15;;;;;;;6.87;1.73;;;11.70;99.90;;;;;;5046502;28;20207;-70
2022/09/18 11:25:44;;;;;;;8.50;1.37;;;11.80;99.90;;;;;;5058848;28;20223;-70
2022/09/18 11:28:21;;;;;;;5.97;1.17;;;12.10;99.90;;;;;;5048252;28;20235;-70
2022/09/18 11:30:56;;;;;;;4.00;1.10;;;12.50;99.90;;;;;;5058812;28;20214;-70
2022/09/18 11:33:27;;;;;;;3.87;1.17;;;12.90;99.90;;;;;;5045537;28;20192;-70
2022/09/18 11:35:59;;;;;;;3.43;1.50;;;13.30;99.90;;;;;;5046125;28;20211;-70
2022/09/18 11:38:27;;;;;;;5.13;1.60;;;13.50;99.90;;;;;;5046522;28;20200;-70
2022/09/18 11:40:56;;;;;;;4.60;1.00;;;13.80;99.90;;;;;;5045964;28;20215;-70
2022/09/18 11:43:27;;;;;;;5.23;1.67;;;14.00;99.90;;;;;;5045923;28;20579;-70
2022/09/18 11:46:01;;;;;;;2.50;1.10;;;14.20;99.90;;;;;;5045522;28;20215;-70
2022/09/18 11:48:34;;;;;;;7.07;3.30;;;14.40;99.90;;;;;;5054281;28;20205;-70
2022/09/18 11:51:06;;;;;;;6.37;1.90;;;14.70;99.90;;;;;;5063605;28;20196;-70
2022/09/18 11:53:38;;;;;;;3.63;1.30;;;14.90;99.90;;;;;;5065202;28;20207;-70
2022/09/18 11:56:13;;;;;;;7.10;1.50;;;15.00;99.90;;;;;;5064614;28;20208;-70
2022/09/18 11:58:47;;;;;;;2.77;1.33;;;14.90;99.90;;;;;;5065007;28;20203;-70
2022/09/18 12:01:24;;;;;;;4.43;0.93;;;14.70;99.90;;;;;;5054239;28;20207;-70
2022/09/18 12:04:00;;;;;;;2.30;1.00;;;14.10;99.90;;;;;;5045207;28;20564;-70
2022/09/18 12:06:34;;;;;;;1.50;0.70;;;13.60;99.90;;;;;;5045882;28;20196;-70
2022/09/18 12:09:10;;;;;;;3.70;0.93;;;13.30;99.90;;;;;;5045742;28;20663;-70
2022/09/18 12:11:42;;;;;;;2.20;0.83;;;13.10;99.90;;;;;;5045665;28;20192;-70
2022/09/18 12:14:17;;;;;;;1.23;0.63;;;12.80;99.90;;;;;;5064259;28;20278;-70
2022/09/18 12:16:50;;;;;;;4.17;1.23;;;12.50;99.90;;;;;;5064995;28;20198;-70
2022/09/18 12:19:23;;;;;;;3.17;0.83;;;12.70;99.90;;;;;;5064862;28;20223;-70
2022/09/18 12:21:58;;;;;;;1.33;0.70;;;13.10;99.90;;;;;;5064795;28;20192;-70
2022/09/18 12:24:25;;;;;;;2.07;0.60;;;13.50;99.90;;;;;;5066659;28;20649;-70
2022/09/18 12:27:06;;;;;;;1.17;0.70;;;13.90;99.90;;;;;;5063400;28;20690;-71
2022/09/18 12:29:50;;;;;;;3.00;0.70;;;14.30;99.90;;;;;;5048556;28;20565;-71
2022/09/18 12:32:30;;;;;;;1.50;0.87;;;14.70;99.90;;;;;;5048624;28;20199;-71
2022/09/18 12:35:07;;;;;;;3.13;1.13;;;15.10;99.90;;;;;;5049222;28;20203;-71
2022/09/18 12:37:49;;;;;;;2.47;0.87;;;15.20;99.90;;;;;;5062919;28;20258;-71
2022/09/18 12:40:30;;;;;;;1.97;0.87;;;15.30;99.90;;;;;;5050902;28;20262;-70
2022/09/18 12:43:13;;;;;;;3.90;1.27;;;15.60;99.90;;;;;;5050022;28;20196;-70
2022/09/18 12:45:58;;;;;;;3.73;1.40;;;15.70;99.90;;;;;;5067526;28;20642;-70
2022/09/18 12:48:46;;;;;;;4.20;1.07;;;15.70;99.90;;;;;;5068323;28;20192;-70
2022/09/18 12:51:31;;;;;;;1.40;0.40;;;15.70;99.90;;;;;;5069349;28;20234;-69
2022/09/18 12:54:18;;;;;;;2.60;1.43;;;15.70;99.90;;;;;;5068752;28;20215;-70
2022/09/18 12:56:55;;;;;;;1.33;1.23;;;15.60;99.90;;;;;;5068238;28;20555;-70
2022/09/18 12:59:40;;;;;;;1.87;0.77;;;15.10;99.90;;;;;;5068187;28;20223;-71
2022/09/18 13:02:28;;;;;;;3.00;1.00;;;14.70;99.90;;;;;;5050460;28;20208;-71
2022/09/18 13:05:01;;;;;;;2.50;1.27;;;14.50;99.90;;;;;;5048910;28;20211;-68